createdAt,value
2018-09-04T00:00:14.832Z,38.20
2018-09-04T00:01:14.817Z,35.70
2018-09-04T00:02:14.830Z,36.80
2018-09-04T00:03:14.815Z,34.40
2018-09-04T00:04:14.785Z,34.60
2018-09-04T00:05:14.773Z,35.90
2018-09-04T00:06:14.764Z,36.10
2018-09-04T00:07:14.748Z,34.20
2018-09-04T00:08:14.773Z,36.00
2018-09-04T00:09:14.738Z,33.70
2018-09-04T00:10:14.753Z,34.80
2018-09-04T00:11:14.704Z,34.10
2018-09-04T00:12:14.694Z,33.80
2018-09-04T00:13:14.682Z,35.20
2018-09-04T00:14:14.687Z,36.20
2018-09-04T00:15:14.662Z,36.00
2018-09-04T00:16:14.660Z,36.40
2018-09-04T00:17:14.641Z,35.80
2018-09-04T00:18:14.627Z,37.50
2018-09-04T00:19:14.614Z,38.70
2018-09-04T00:20:14.618Z,36.70
2018-09-04T00:21:14.616Z,38.70
2018-09-04T00:22:14.584Z,39.10
2018-09-04T00:23:14.598Z,39.70
2018-09-04T00:24:14.559Z,39.70
2018-09-04T00:25:14.546Z,38.80
2018-09-04T00:26:14.561Z,37.10
2018-09-04T00:27:14.533Z,38.50
2018-09-04T00:28:14.514Z,37.30
2018-09-04T00:29:14.508Z,37.20
2018-09-04T00:30:14.521Z,37.00
2018-09-04T00:31:14.483Z,34.30
2018-09-04T00:32:14.486Z,35.20
2018-09-04T00:33:14.462Z,34.30
2018-09-04T00:34:14.487Z,35.20
2018-09-04T00:35:14.455Z,35.10
2018-09-04T00:36:14.462Z,34.80
2018-09-04T00:37:14.416Z,34.90
2018-09-04T00:38:14.411Z,34.80
2018-09-04T00:39:14.389Z,35.80
2018-09-04T00:40:14.381Z,35.60
2018-09-04T00:41:14.388Z,34.40
2018-09-04T00:42:14.380Z,33.70
2018-09-04T00:43:14.346Z,33.40
2018-09-04T00:44:14.348Z,35.20
2018-09-04T00:45:14.348Z,33.80
2018-09-04T00:46:14.311Z,32.90
2018-09-04T00:47:14.313Z,33.30
2018-09-04T00:48:14.293Z,30.00
2018-09-04T00:49:14.284Z,31.20
2018-09-04T00:50:14.312Z,31.70
2018-09-04T00:51:14.259Z,31.80
2018-09-04T00:52:14.296Z,32.20
2018-09-04T00:53:14.233Z,32.40
2018-09-04T00:54:14.222Z,32.80
2018-09-04T00:55:14.211Z,32.00
2018-09-04T00:56:14.198Z,32.90
2018-09-04T00:57:14.218Z,31.40
2018-09-04T00:58:14.195Z,29.70
2018-09-04T00:59:14.163Z,30.50
2018-09-04T01:00:14.153Z,30.30
2018-09-04T01:01:14.160Z,31.00
2018-09-04T01:02:14.129Z,30.40
2018-09-04T01:03:14.122Z,31.00
2018-09-04T01:04:14.141Z,32.30
2018-09-04T01:05:14.131Z,32.00
2018-09-04T01:06:14.099Z,31.50
2018-09-04T01:07:14.097Z,31.10
2018-09-04T01:08:14.064Z,28.70
2018-09-04T01:09:14.075Z,30.30
2018-09-04T01:10:14.040Z,28.90
2018-09-04T01:11:14.031Z,30.50
2018-09-04T01:12:14.047Z,29.60
2018-09-04T01:13:14.009Z,30.20
2018-09-04T01:14:14.015Z,29.50
2018-09-04T01:15:13.995Z,29.80
2018-09-04T01:16:13.979Z,30.10
2018-09-04T01:17:13.989Z,29.40
2018-09-04T01:18:13.957Z,29.80
2018-09-04T01:19:13.959Z,28.80
2018-09-04T01:20:13.934Z,28.90
2018-09-04T01:21:13.917Z,28.80
2018-09-04T01:22:13.905Z,28.70
2018-09-04T01:23:13.938Z,28.80
2018-09-04T01:24:13.883Z,27.70
2018-09-04T01:25:13.875Z,29.30
2018-09-04T01:26:13.892Z,27.40
2018-09-04T01:27:13.866Z,27.50
2018-09-04T01:28:13.865Z,28.00
2018-09-04T01:29:13.850Z,29.40
2018-09-04T01:30:13.821Z,28.40
2018-09-04T01:31:13.806Z,27.00
2018-09-04T01:32:13.801Z,30.40
2018-09-04T01:33:13.788Z,29.20
2018-09-04T01:34:13.774Z,28.20
2018-09-04T01:35:13.773Z,28.40
2018-09-04T01:36:13.752Z,27.70
2018-09-04T01:37:13.776Z,29.20
2018-09-04T01:38:13.730Z,28.40
2018-09-04T01:39:13.736Z,29.60
2018-09-04T01:40:13.718Z,28.50
2018-09-04T01:41:13.696Z,27.60
2018-09-04T01:42:13.687Z,29.40
2018-09-04T01:43:13.705Z,29.30
2018-09-04T01:44:13.663Z,29.20
2018-09-04T01:45:13.665Z,29.90
2018-09-04T01:46:13.656Z,29.10
2018-09-04T01:47:13.632Z,29.50
2018-09-04T01:48:13.618Z,29.50
2018-09-04T01:49:13.609Z,28.30
2018-09-04T01:50:13.647Z,28.00
2018-09-04T01:51:13.585Z,29.80
2018-09-04T01:52:13.588Z,30.20
2018-09-04T01:53:13.565Z,28.40
2018-09-04T01:54:13.580Z,28.50
2018-09-04T01:55:13.538Z,29.60
2018-09-04T01:56:13.534Z,29.70
2018-09-04T01:57:13.540Z,28.80
2018-09-04T01:58:13.509Z,28.10
2018-09-04T01:59:13.528Z,30.30
2018-09-04T02:00:13.487Z,30.40
2018-09-04T02:01:13.472Z,30.70
2018-09-04T02:02:13.469Z,31.30
2018-09-04T02:03:13.477Z,31.70
2018-09-04T02:04:13.443Z,32.50
2018-09-04T02:05:13.532Z,32.10
2018-09-04T02:06:13.456Z,33.20
2018-09-04T02:07:13.422Z,33.80
2018-09-04T02:08:13.393Z,33.00
2018-09-04T02:09:13.443Z,31.70
2018-09-04T02:10:13.373Z,32.40
2018-09-04T02:11:13.360Z,32.70
2018-09-04T02:12:13.396Z,31.90
2018-09-04T02:13:13.340Z,31.30
2018-09-04T02:14:13.340Z,29.30
2018-09-04T02:15:13.351Z,29.20
2018-09-04T02:16:13.349Z,29.80
2018-09-04T02:17:13.293Z,30.70
2018-09-04T02:18:13.284Z,32.30
2018-09-04T02:19:13.276Z,32.90
2018-09-04T02:20:13.258Z,32.10
2018-09-04T02:21:13.265Z,32.30
2018-09-04T02:22:13.266Z,30.50
2018-09-04T02:23:13.226Z,30.60
2018-09-04T02:24:13.229Z,30.90
2018-09-04T02:25:13.215Z,31.10
2018-09-04T02:26:13.214Z,31.30
2018-09-04T02:27:13.184Z,31.60
2018-09-04T02:28:13.168Z,31.70
2018-09-04T02:29:13.190Z,30.50
2018-09-04T02:30:13.167Z,32.90
2018-09-04T02:31:13.139Z,34.90
2018-09-04T02:32:13.130Z,32.70
2018-09-04T02:33:13.171Z,35.30
2018-09-04T02:34:13.104Z,36.20
2018-09-04T02:35:13.112Z,36.80
2018-09-04T02:36:13.116Z,36.60
2018-09-04T02:37:13.089Z,36.30
2018-09-04T02:38:13.066Z,37.40
2018-09-04T02:39:13.046Z,37.00
2018-09-04T02:40:13.038Z,37.90
2018-09-04T02:41:13.028Z,35.90
2018-09-04T02:42:13.025Z,35.60
2018-09-04T02:43:13.003Z,36.30
2018-09-04T02:44:13.010Z,34.60
2018-09-04T02:45:12.980Z,34.50
2018-09-04T02:46:12.969Z,36.50
2018-09-04T02:47:12.997Z,37.00
2018-09-04T02:48:12.948Z,36.70
2018-09-04T02:49:12.936Z,37.80
2018-09-04T02:50:12.951Z,36.70
2018-09-04T02:51:12.921Z,37.40
2018-09-04T02:52:12.906Z,35.50
2018-09-04T02:53:12.892Z,36.40
2018-09-04T02:54:12.900Z,37.20
2018-09-04T02:55:12.878Z,36.70
2018-09-04T02:56:12.886Z,35.20
2018-09-04T02:57:12.855Z,37.80
2018-09-04T02:58:12.838Z,36.40
2018-09-04T02:59:12.834Z,36.40
2018-09-04T03:00:12.816Z,33.70
2018-09-04T03:01:12.809Z,34.80
2018-09-04T03:02:12.849Z,35.20
2018-09-04T03:03:12.783Z,34.90
2018-09-04T03:04:12.772Z,37.60
2018-09-04T03:05:12.775Z,36.10
2018-09-04T03:06:12.760Z,35.40
2018-09-04T03:07:12.742Z,35.70
2018-09-04T03:08:12.743Z,34.40
2018-09-04T03:09:12.737Z,34.60
2018-09-04T03:10:12.701Z,35.40
2018-09-04T03:11:12.694Z,35.00
2018-09-04T03:12:12.682Z,36.80
2018-09-04T03:13:12.672Z,35.80
2018-09-04T03:14:12.677Z,34.30
2018-09-04T03:15:12.685Z,35.40
2018-09-04T03:16:12.635Z,33.60
2018-09-04T03:17:12.628Z,33.80
2018-09-04T03:18:12.613Z,33.60
2018-09-04T03:19:12.604Z,33.20
2018-09-04T03:20:12.607Z,34.10
2018-09-04T03:21:12.583Z,34.00
2018-09-04T03:22:12.574Z,34.60
2018-09-04T03:23:12.624Z,38.10
2018-09-04T03:24:12.552Z,37.50
2018-09-04T03:25:12.539Z,35.50
2018-09-04T03:26:12.560Z,37.20
2018-09-04T03:27:12.519Z,34.80
2018-09-04T03:28:12.505Z,35.10
2018-09-04T03:29:12.491Z,36.70
2018-09-04T03:30:12.480Z,35.40
2018-09-04T03:31:12.473Z,35.00
2018-09-04T03:32:12.481Z,34.70
2018-09-04T03:33:12.451Z,37.20
2018-09-04T03:34:12.435Z,36.60
2018-09-04T03:35:12.429Z,32.40
2018-09-04T03:36:12.420Z,36.00
2018-09-04T03:37:12.405Z,36.10
2018-09-04T03:38:12.418Z,36.80
2018-09-04T03:39:12.433Z,35.50
2018-09-04T03:40:12.380Z,34.70
2018-09-04T03:41:12.360Z,33.50
2018-09-04T03:42:12.399Z,32.50
2018-09-04T03:43:12.347Z,32.90
2018-09-04T03:44:12.356Z,36.80
2018-09-04T03:45:12.349Z,32.00
2018-09-04T03:46:12.305Z,33.20
2018-09-04T03:47:12.303Z,31.20
2018-09-04T03:48:12.287Z,33.60
2018-09-04T03:49:12.267Z,31.90
2018-09-04T03:50:12.273Z,33.30
2018-09-04T03:51:12.249Z,31.60
2018-09-04T03:52:12.317Z,34.90
2018-09-04T03:53:12.227Z,33.30
2018-09-04T03:54:12.215Z,34.20
2018-09-04T03:55:12.204Z,35.20
2018-09-04T03:56:12.212Z,34.30
2018-09-04T03:57:12.185Z,32.80
2018-09-04T03:58:12.212Z,33.80
2018-09-04T03:59:12.159Z,34.40
2018-09-04T04:00:12.146Z,33.80
2018-09-04T04:01:12.136Z,34.60
2018-09-04T04:02:12.155Z,33.30
2018-09-04T04:03:12.112Z,33.50
2018-09-04T04:04:12.117Z,35.00
2018-09-04T04:05:12.089Z,34.70
2018-09-04T04:06:12.115Z,33.60
2018-09-04T04:07:12.085Z,32.60
2018-09-04T04:08:12.072Z,34.50
2018-09-04T04:09:12.046Z,31.00
2018-09-04T04:10:12.037Z,31.00
2018-09-04T04:11:12.028Z,30.40
2018-09-04T04:12:12.015Z,29.50
2018-09-04T04:13:12.046Z,29.20
2018-09-04T04:14:11.991Z,30.50
2018-09-04T04:15:11.983Z,30.50
2018-09-04T04:16:11.967Z,30.70
2018-09-04T04:17:11.959Z,31.80
2018-09-04T04:18:11.946Z,32.80
2018-09-04T04:19:11.987Z,33.00
2018-09-04T04:20:11.924Z,32.00
2018-09-04T04:21:11.910Z,33.70
2018-09-04T04:22:11.899Z,32.50
2018-09-04T04:23:11.892Z,34.20
2018-09-04T04:24:11.889Z,35.60
2018-09-04T04:25:11.891Z,32.30
2018-09-04T04:26:11.886Z,30.10
2018-09-04T04:27:11.847Z,31.20
2018-09-04T04:28:11.837Z,32.30
2018-09-04T04:29:11.822Z,33.40
2018-09-04T04:30:11.822Z,33.60
2018-09-04T04:31:11.824Z,32.90
2018-09-04T04:32:11.834Z,33.70
2018-09-04T04:33:11.873Z,31.10
2018-09-04T04:34:11.770Z,31.80
2018-09-04T04:35:11.769Z,31.20
2018-09-04T04:36:11.746Z,30.40
2018-09-04T04:37:11.754Z,30.60
2018-09-04T04:38:11.763Z,31.00
2018-09-04T04:39:11.716Z,32.20
2018-09-04T04:40:11.763Z,30.70
2018-09-04T04:41:11.692Z,32.50
2018-09-04T04:42:11.705Z,33.40
2018-09-04T04:43:11.672Z,36.50
2018-09-04T04:44:11.655Z,34.50
2018-09-04T04:45:11.677Z,35.60
2018-09-04T04:46:11.634Z,34.40
2018-09-04T04:47:11.624Z,34.30
2018-09-04T04:48:11.670Z,33.10
2018-09-04T04:49:11.602Z,34.30
2018-09-04T04:50:11.590Z,31.90
2018-09-04T04:51:11.588Z,31.90
2018-09-04T04:52:11.570Z,33.50
2018-09-04T04:53:11.556Z,33.30
2018-09-04T04:54:11.564Z,33.00
2018-09-04T04:55:11.587Z,32.80
2018-09-04T04:56:11.524Z,31.60
2018-09-04T04:57:11.512Z,29.10
2018-09-04T04:58:11.498Z,29.50
2018-09-04T04:59:11.523Z,29.30
2018-09-04T05:00:11.499Z,28.40
2018-09-04T05:01:11.468Z,29.60
2018-09-04T05:02:11.457Z,28.70
2018-09-04T05:03:11.446Z,29.50
2018-09-04T05:04:11.470Z,29.20
2018-09-04T05:05:11.438Z,28.90
2018-09-04T05:06:11.409Z,28.10
2018-09-04T05:07:11.398Z,27.60
2018-09-04T05:08:11.389Z,27.30
2018-09-04T05:09:11.386Z,27.60
2018-09-04T05:10:11.392Z,27.50
2018-09-04T05:11:11.433Z,27.80
2018-09-04T05:12:11.345Z,27.40
2018-09-04T05:13:11.333Z,27.60
2018-09-04T05:14:11.321Z,27.80
2018-09-04T05:15:11.309Z,26.80
2018-09-04T05:16:11.342Z,27.90
2018-09-04T05:17:11.306Z,28.60
2018-09-04T05:18:11.282Z,27.60
2018-09-04T05:19:11.271Z,28.30
2018-09-04T05:20:11.252Z,27.80
2018-09-04T05:21:11.246Z,27.60
2018-09-04T05:22:11.230Z,28.40
2018-09-04T05:23:11.246Z,29.70
2018-09-04T05:24:11.210Z,30.90
2018-09-04T05:25:11.222Z,32.10
2018-09-04T05:26:11.190Z,30.20
2018-09-04T05:27:11.177Z,32.30
2018-09-04T05:28:11.172Z,30.00
2018-09-04T05:29:11.172Z,31.00
2018-09-04T05:30:11.145Z,29.80
2018-09-04T05:31:11.132Z,31.20
2018-09-04T05:32:11.156Z,30.50
2018-09-04T05:33:11.124Z,29.30
2018-09-04T05:34:11.105Z,29.50
2018-09-04T05:35:11.125Z,28.60
2018-09-04T05:36:11.078Z,30.00
2018-09-04T05:37:11.077Z,29.10
2018-09-04T05:38:11.056Z,30.70
2018-09-04T05:39:11.045Z,30.10
2018-09-04T05:40:11.067Z,33.00
2018-09-04T05:41:11.022Z,35.80
2018-09-04T05:42:11.029Z,34.50
2018-09-04T05:43:11.015Z,32.90
2018-09-04T05:44:11.018Z,31.40
2018-09-04T05:45:10.986Z,32.70
2018-09-04T05:46:10.981Z,31.70
2018-09-04T05:47:10.975Z,32.10
2018-09-04T05:48:10.972Z,33.90
2018-09-04T05:49:10.945Z,33.20
2018-09-04T05:50:10.920Z,34.60
2018-09-04T05:51:10.929Z,34.50
2018-09-04T05:52:10.900Z,35.90
2018-09-04T05:53:10.885Z,33.70
2018-09-04T05:54:10.951Z,32.50
2018-09-04T05:55:10.949Z,36.10
2018-09-04T05:56:10.869Z,34.10
2018-09-04T05:57:10.843Z,33.30
2018-09-04T05:58:10.837Z,33.60
2018-09-04T05:59:10.821Z,34.10
2018-09-04T06:00:10.830Z,34.50
2018-09-04T06:01:10.813Z,33.40
2018-09-04T06:02:10.785Z,33.90
2018-09-04T06:03:10.780Z,35.80
2018-09-04T06:04:10.765Z,34.40
2018-09-04T06:05:10.754Z,34.00
2018-09-04T06:06:10.782Z,33.90
2018-09-04T06:07:10.731Z,33.80
2018-09-04T06:08:10.741Z,36.10
2018-09-04T06:09:10.716Z,34.10
2018-09-04T06:10:10.705Z,33.90
2018-09-04T06:11:10.736Z,35.50
2018-09-04T06:12:10.675Z,35.50
2018-09-04T06:13:10.664Z,36.80
2018-09-04T06:14:10.677Z,36.80
2018-09-04T06:15:10.654Z,35.80
2018-09-04T06:16:10.637Z,36.70
2018-09-04T06:17:10.638Z,40.80
2018-09-04T06:18:10.634Z,39.60
2018-09-04T06:19:10.609Z,39.80
2018-09-04T06:20:10.668Z,39.50
2018-09-04T06:21:10.576Z,40.00
2018-09-04T06:22:10.580Z,39.00
2018-09-04T06:23:10.592Z,40.40
2018-09-04T06:24:10.554Z,42.40
2018-09-04T06:25:10.527Z,41.70
2018-09-04T06:26:10.522Z,44.00
2018-09-04T06:27:10.543Z,45.70
2018-09-04T06:28:10.501Z,43.20
2018-09-04T06:29:10.514Z,42.70
2018-09-04T06:30:10.517Z,45.30
2018-09-04T06:31:10.468Z,45.00
2018-09-04T06:32:10.452Z,46.70
2018-09-04T06:33:10.450Z,51.00
2018-09-04T06:34:10.540Z,47.00
2018-09-04T06:35:10.421Z,50.00
2018-09-04T06:36:10.450Z,48.10
2018-09-04T06:37:10.400Z,49.20
2018-09-04T06:38:10.397Z,48.60
2018-09-04T06:39:10.377Z,48.60
2018-09-04T06:40:10.377Z,46.50
2018-09-04T06:41:10.368Z,46.90
2018-09-04T06:42:10.340Z,45.70
2018-09-04T06:43:10.331Z,48.60
2018-09-04T06:44:10.340Z,46.00
2018-09-04T06:45:10.304Z,49.90
2018-09-04T06:46:10.311Z,51.10
2018-09-04T06:47:10.289Z,59.40
2018-09-04T06:48:10.280Z,56.10
2018-09-04T06:49:10.280Z,55.80
2018-09-04T06:50:10.256Z,55.60
2018-09-04T06:51:10.242Z,54.70
2018-09-04T06:52:10.239Z,51.90
2018-09-04T06:53:10.221Z,52.50
2018-09-04T06:54:10.229Z,58.10
2018-09-04T06:55:10.195Z,56.80
2018-09-04T06:56:10.199Z,62.40
2018-09-04T06:57:10.216Z,60.70
2018-09-04T06:58:10.158Z,57.70
2018-09-04T06:59:10.151Z,57.40
2018-09-04T07:00:10.169Z,56.40
2018-09-04T07:01:10.128Z,55.90
2018-09-04T07:02:10.166Z,54.70
2018-09-04T07:03:10.111Z,53.70
2018-09-04T07:04:10.150Z,54.70
2018-09-04T07:05:10.082Z,57.10
2018-09-04T07:06:10.238Z,53.70
2018-09-04T07:07:10.061Z,56.30
2018-09-04T07:08:10.084Z,52.80
2018-09-04T07:09:10.039Z,53.10
2018-09-04T07:10:10.039Z,54.70
2018-09-04T07:11:10.041Z,55.50
2018-09-04T07:12:10.004Z,54.90
2018-09-04T07:13:09.996Z,55.30
2018-09-04T07:14:10.006Z,54.90
2018-09-04T07:15:09.999Z,56.80
2018-09-04T07:16:09.991Z,56.10
2018-09-04T07:17:10.056Z,54.70
2018-09-04T07:18:09.945Z,52.80
2018-09-04T07:19:09.949Z,53.30
2018-09-04T07:20:09.927Z,56.30
2018-09-04T07:21:09.914Z,56.10
2018-09-04T07:22:09.901Z,56.00
2018-09-04T07:23:09.881Z,57.20
2018-09-04T07:24:09.882Z,58.40
2018-09-04T07:25:09.897Z,55.00
2018-09-04T07:26:09.851Z,56.70
2018-09-04T07:27:09.845Z,57.60
2018-09-04T07:28:09.825Z,57.90
2018-09-04T07:29:09.823Z,57.70
2018-09-04T07:30:09.817Z,59.10
2018-09-04T07:31:09.808Z,57.20
2018-09-04T07:32:09.780Z,57.90
2018-09-04T07:33:09.778Z,59.40
2018-09-04T07:34:09.775Z,60.10
2018-09-04T07:35:09.750Z,60.70
2018-09-04T07:36:09.736Z,59.90
2018-09-04T07:37:09.755Z,62.00
2018-09-04T07:38:09.717Z,62.20
2018-09-04T07:39:09.706Z,62.80
2018-09-04T07:40:09.719Z,60.10
2018-09-04T07:41:09.687Z,61.90
2018-09-04T07:42:09.704Z,60.20
2018-09-04T07:43:09.687Z,58.20
2018-09-04T07:44:09.659Z,59.30
2018-09-04T07:45:09.643Z,58.80
2018-09-04T07:46:09.644Z,58.80
2018-09-04T07:47:09.615Z,57.80
2018-09-04T07:48:09.609Z,58.70
2018-09-04T07:49:09.594Z,58.10
2018-09-04T07:50:09.583Z,59.60
2018-09-04T07:51:09.612Z,58.50
2018-09-04T07:52:09.573Z,58.90
2018-09-04T07:53:09.552Z,60.50
2018-09-04T07:54:09.541Z,63.00
2018-09-04T07:55:09.525Z,60.40
2018-09-04T07:56:09.521Z,59.40
2018-09-04T07:57:09.506Z,57.70
2018-09-04T07:58:09.514Z,57.70
2018-09-04T07:59:09.519Z,59.50
2018-09-04T08:00:09.486Z,58.20
2018-09-04T08:01:09.509Z,57.40
2018-09-04T08:02:09.451Z,57.20
2018-09-04T08:03:09.472Z,58.30
2018-09-04T08:04:09.446Z,58.30
2018-09-04T08:05:09.431Z,57.40
2018-09-04T08:06:09.404Z,58.30
2018-09-04T08:07:09.419Z,57.60
2018-09-04T08:08:09.386Z,58.90
2018-09-04T08:09:09.378Z,61.40
2018-09-04T08:10:09.409Z,59.50
2018-09-04T08:11:09.347Z,59.00
2018-09-04T08:12:09.356Z,58.00
2018-09-04T08:13:09.354Z,59.20
2018-09-04T08:14:09.332Z,58.10
2018-09-04T08:15:09.307Z,60.00
2018-09-04T08:16:09.351Z,59.20
2018-09-04T08:17:09.294Z,58.60
2018-09-04T08:18:09.277Z,58.80
2018-09-04T08:19:09.257Z,59.30
2018-09-04T08:20:09.247Z,59.70
2018-09-04T08:21:09.248Z,59.80
2018-09-04T08:22:09.288Z,57.90
2018-09-04T08:23:09.214Z,59.20
2018-09-04T08:24:09.203Z,55.60
2018-09-04T08:25:09.194Z,58.20
2018-09-04T08:26:09.216Z,55.90
2018-09-04T08:27:09.166Z,56.60
2018-09-04T08:28:09.174Z,56.60
2018-09-04T08:29:09.171Z,58.90
2018-09-04T08:30:09.140Z,56.50
2018-09-04T08:31:09.148Z,57.40
2018-09-04T08:32:09.112Z,61.10
2018-09-04T08:33:09.167Z,58.60
2018-09-04T08:34:09.112Z,59.00
2018-09-04T08:35:09.078Z,59.10
2018-09-04T08:36:09.082Z,59.00
2018-09-04T08:37:09.079Z,59.60
2018-09-04T08:38:09.048Z,59.20
2018-09-04T08:39:09.034Z,57.80
2018-09-04T08:40:09.106Z,57.30
2018-09-04T08:41:09.015Z,57.60
2018-09-04T08:42:09.000Z,58.20
2018-09-04T08:43:08.990Z,56.60
2018-09-04T08:44:09.005Z,58.50
2018-09-04T08:45:08.984Z,55.90
2018-09-04T08:46:08.964Z,57.20
2018-09-04T08:47:08.984Z,58.80
2018-09-04T08:48:08.937Z,56.80
2018-09-04T08:49:08.923Z,59.10
2018-09-04T08:50:08.920Z,56.70
2018-09-04T08:51:08.907Z,54.40
2018-09-04T08:52:08.897Z,55.80
2018-09-04T08:53:08.927Z,57.40
2018-09-04T08:54:08.891Z,55.90
2018-09-04T08:55:08.889Z,57.70
2018-09-04T08:56:08.846Z,55.40
2018-09-04T08:57:08.842Z,57.10
2018-09-04T08:58:08.838Z,59.90
2018-09-04T08:59:08.812Z,59.20
2018-09-04T09:00:08.798Z,57.30
2018-09-04T09:01:08.784Z,57.90
2018-09-04T09:02:08.775Z,57.50
2018-09-04T09:03:08.766Z,58.00
2018-09-04T09:04:08.771Z,60.20
2018-09-04T09:05:08.746Z,57.80
2018-09-04T09:06:08.729Z,56.00
2018-09-04T09:07:08.753Z,57.30
2018-09-04T09:08:08.705Z,58.50
2018-09-04T09:09:08.729Z,56.70
2018-09-04T09:10:08.790Z,57.10
2018-09-04T09:11:08.683Z,56.90
2018-09-04T09:12:08.660Z,55.10
2018-09-04T09:13:08.649Z,55.00
2018-09-04T09:14:08.647Z,56.50
2018-09-04T09:15:08.640Z,55.60
2018-09-04T09:16:08.629Z,54.80
2018-09-04T09:17:08.603Z,55.50
2018-09-04T09:18:08.601Z,55.20
2018-09-04T09:19:08.588Z,56.00
2018-09-04T09:20:08.598Z,52.70
2018-09-04T09:21:08.559Z,51.40
2018-09-04T09:22:08.575Z,53.20
2018-09-04T09:23:08.542Z,52.90
2018-09-04T09:24:08.531Z,52.00
2018-09-04T09:25:08.512Z,54.30
2018-09-04T09:26:08.531Z,53.50
2018-09-04T09:27:08.513Z,50.30
2018-09-04T09:28:08.501Z,51.20
2018-09-04T09:29:08.471Z,53.30
2018-09-04T09:30:08.471Z,51.20
2018-09-04T09:31:08.446Z,48.30
2018-09-04T09:32:08.439Z,45.80
2018-09-04T09:33:08.433Z,46.30
2018-09-04T09:34:08.449Z,48.90
2018-09-04T09:35:08.427Z,49.60
2018-09-04T09:36:08.393Z,51.10
2018-09-04T09:37:08.424Z,50.30
2018-09-04T09:38:08.368Z,51.50
2018-09-04T09:39:08.362Z,48.30
2018-09-04T09:40:08.358Z,48.00
2018-09-04T09:41:08.339Z,46.60
2018-09-04T09:42:08.343Z,42.90
2018-09-04T09:43:08.312Z,45.10
2018-09-04T09:44:08.301Z,48.60
2018-09-04T09:45:08.339Z,45.70
2018-09-04T09:46:08.294Z,48.40
2018-09-04T09:47:08.268Z,46.30
2018-09-04T09:48:08.269Z,45.10
2018-09-04T09:49:08.281Z,44.70
2018-09-04T09:50:08.241Z,45.00
2018-09-04T09:51:08.231Z,46.10
2018-09-04T09:52:08.256Z,49.70
2018-09-04T09:53:08.333Z,50.90
2018-09-04T09:54:08.203Z,50.50
2018-09-04T09:55:08.178Z,49.40
2018-09-04T09:56:08.241Z,48.80
2018-09-04T09:57:08.191Z,49.30
2018-09-04T09:58:08.165Z,48.60
2018-09-04T09:59:08.132Z,46.90
2018-09-04T10:00:08.168Z,46.60
2018-09-04T10:01:08.146Z,47.80
2018-09-04T10:02:08.095Z,45.70
2018-09-04T10:03:08.092Z,47.10
2018-09-04T10:04:08.197Z,44.90
2018-09-04T10:05:08.095Z,49.60
2018-09-04T10:06:08.059Z,47.40
2018-09-04T10:07:08.045Z,46.20
2018-09-04T10:08:08.168Z,47.70
2018-09-04T10:09:08.050Z,45.40
2018-09-04T10:10:08.022Z,49.00
2018-09-04T10:11:08.140Z,46.90
2018-09-04T10:12:08.006Z,44.20
2018-09-04T10:13:07.977Z,42.90
2018-09-04T10:14:07.966Z,43.80
2018-09-04T10:15:07.986Z,43.90
2018-09-04T10:16:07.940Z,45.70
2018-09-04T10:17:07.975Z,48.60
2018-09-04T10:18:07.921Z,47.80
2018-09-04T10:19:07.912Z,43.80
2018-09-04T10:20:07.907Z,44.70
2018-09-04T10:21:07.899Z,43.90
2018-09-04T10:22:07.883Z,45.90
2018-09-04T10:23:07.863Z,46.50
2018-09-04T10:24:07.851Z,45.40
2018-09-04T10:25:07.865Z,46.00
2018-09-04T10:26:07.858Z,45.00
2018-09-04T10:27:07.852Z,47.50
2018-09-04T10:28:07.859Z,45.50
2018-09-04T10:29:07.815Z,43.80
2018-09-04T10:30:07.780Z,43.70
2018-09-04T10:31:07.805Z,43.60
2018-09-04T10:32:07.761Z,42.90
2018-09-04T10:33:07.777Z,41.50
2018-09-04T10:34:07.764Z,43.70
2018-09-04T10:35:07.743Z,43.10
2018-09-04T10:36:07.722Z,42.00
2018-09-04T10:37:07.705Z,43.10
2018-09-04T10:38:07.716Z,42.30
2018-09-04T10:39:07.700Z,42.00
2018-09-04T10:40:07.710Z,40.80
2018-09-04T10:41:07.662Z,40.40
2018-09-04T10:42:07.667Z,43.60
2018-09-04T10:43:07.640Z,41.60
2018-09-04T10:44:07.672Z,40.60
2018-09-04T10:45:07.680Z,39.40
2018-09-04T10:46:07.602Z,39.90
2018-09-04T10:47:07.596Z,40.50
2018-09-04T10:48:07.591Z,38.70
2018-09-04T10:49:07.579Z,42.20
2018-09-04T10:50:07.559Z,39.00
2018-09-04T10:51:07.571Z,39.00
2018-09-04T10:52:07.565Z,40.50
2018-09-04T10:53:07.534Z,38.20
2018-09-04T10:54:07.519Z,37.90
2018-09-04T10:55:07.506Z,37.70
2018-09-04T10:56:07.492Z,38.50
2018-09-04T10:57:07.500Z,37.90
2018-09-04T10:58:07.475Z,37.20
2018-09-04T10:59:07.494Z,36.20
2018-09-04T11:00:07.451Z,36.00
2018-09-04T11:01:07.464Z,36.20
2018-09-04T11:02:07.450Z,34.90
2018-09-04T11:03:07.435Z,35.90
2018-09-04T11:04:07.407Z,36.30
2018-09-04T11:05:07.408Z,35.40
2018-09-04T11:06:07.409Z,36.40
2018-09-04T11:07:07.405Z,36.00
2018-09-04T11:08:07.363Z,36.50
2018-09-04T11:09:07.449Z,34.30
2018-09-04T11:10:07.338Z,34.40
2018-09-04T11:11:07.338Z,35.40
2018-09-04T11:12:07.318Z,34.30
2018-09-04T11:13:07.313Z,34.30
2018-09-04T11:14:07.295Z,33.80
2018-09-04T11:15:07.337Z,33.90
2018-09-04T11:16:07.278Z,33.00
2018-09-04T11:17:07.261Z,32.00
2018-09-04T11:18:07.250Z,33.20
2018-09-04T11:19:07.241Z,32.70
2018-09-04T11:20:07.246Z,33.10
2018-09-04T11:21:07.241Z,32.00
2018-09-04T11:22:07.208Z,31.90
2018-09-04T11:23:07.241Z,31.10
2018-09-04T11:24:07.188Z,32.00
2018-09-04T11:25:07.203Z,30.10
2018-09-04T11:26:07.163Z,29.90
2018-09-04T11:27:07.169Z,30.10
2018-09-04T11:28:07.140Z,29.50
2018-09-04T11:29:07.131Z,29.20
2018-09-04T11:30:07.136Z,28.30
2018-09-04T11:31:07.117Z,27.60
2018-09-04T11:32:07.104Z,28.20
2018-09-04T11:33:07.101Z,28.50
2018-09-04T11:34:07.118Z,28.60
2018-09-04T11:35:07.067Z,29.10
2018-09-04T11:36:07.081Z,27.40
2018-09-04T11:37:07.040Z,27.70
2018-09-04T11:38:07.050Z,28.20
2018-09-04T11:39:07.052Z,29.20
2018-09-04T11:40:07.056Z,29.50
2018-09-04T11:41:06.996Z,30.50
2018-09-04T11:42:06.988Z,28.50
2018-09-04T11:43:07.012Z,28.50
2018-09-04T11:44:06.979Z,28.10
2018-09-04T11:45:06.964Z,28.80
2018-09-04T11:46:06.953Z,28.80
2018-09-04T11:47:06.940Z,28.30
2018-09-04T11:48:06.932Z,26.50
2018-09-04T11:49:06.913Z,26.30
2018-09-04T11:50:06.900Z,26.10
2018-09-04T11:51:06.944Z,26.30
2018-09-04T11:52:06.879Z,25.80
2018-09-04T11:53:06.873Z,26.60
2018-09-04T11:54:06.852Z,25.60
2018-09-04T11:55:06.845Z,25.00
2018-09-04T11:56:06.866Z,25.90
2018-09-04T11:57:06.853Z,26.40
2018-09-04T11:58:06.833Z,28.10
2018-09-04T11:59:06.796Z,26.20
2018-09-04T12:00:06.797Z,26.30
2018-09-04T12:01:06.787Z,26.20
2018-09-04T12:02:06.807Z,26.30
2018-09-04T12:03:06.780Z,27.50
2018-09-04T12:04:06.782Z,26.50
2018-09-04T12:05:06.736Z,26.30
2018-09-04T12:06:06.723Z,25.00
2018-09-04T12:07:06.712Z,25.90
2018-09-04T12:08:06.723Z,25.10
2018-09-04T12:09:06.713Z,24.20
2018-09-04T12:10:06.680Z,23.50
2018-09-04T12:11:06.706Z,23.70
2018-09-04T12:12:06.660Z,24.70
2018-09-04T12:13:06.659Z,25.50
2018-09-04T12:14:06.631Z,26.40
2018-09-04T12:15:06.673Z,26.20
2018-09-04T12:16:06.614Z,26.10
2018-09-04T12:17:06.607Z,26.40
2018-09-04T12:18:06.626Z,25.10
2018-09-04T12:19:06.618Z,24.70
2018-09-04T12:20:06.567Z,24.60
2018-09-04T12:21:06.805Z,24.50
2018-09-04T12:22:06.544Z,25.10
2018-09-04T12:23:06.532Z,24.30
2018-09-04T12:24:06.573Z,23.10
2018-09-04T12:25:06.513Z,23.10
2018-09-04T12:26:06.503Z,21.00
2018-09-04T12:27:06.585Z,21.80
2018-09-04T12:28:06.578Z,21.80
2018-09-04T12:29:06.466Z,21.60
2018-09-04T12:30:06.454Z,22.30
2018-09-04T12:31:06.449Z,21.40
2018-09-04T12:32:06.434Z,21.20
2018-09-04T12:33:06.508Z,20.00
2018-09-04T12:34:06.544Z,21.00
2018-09-04T12:35:06.433Z,21.40
2018-09-04T12:36:06.391Z,21.10
2018-09-04T12:37:06.416Z,21.50
2018-09-04T12:38:06.418Z,19.70
2018-09-04T12:39:06.378Z,19.40
2018-09-04T12:40:06.363Z,19.90
2018-09-04T12:41:06.345Z,18.40
2018-09-04T12:42:06.408Z,19.00
2018-09-04T12:43:06.348Z,18.20
2018-09-04T12:44:06.306Z,18.50
2018-09-04T12:45:06.317Z,17.90
2018-09-04T12:46:06.330Z,16.80
2018-09-04T12:47:06.272Z,16.50
2018-09-04T12:48:06.346Z,15.20
2018-09-04T12:49:06.252Z,15.80
2018-09-04T12:50:06.239Z,15.30
2018-09-04T12:51:06.246Z,14.80
2018-09-04T12:52:06.284Z,16.60